sensor_id;sensor_type;location;lat;lon;timestamp;temperature;humidity
35085;SHT85;21267;51.032;6.998;2024-01-16T00:01:00;1.44;90.63
35085;SHT85;21267;51.032;6.998;2024-01-16T00:03:28;1.48;90.79
35085;SHT85;21267;51.032;6.998;2024-01-16T00:05:55;1.45;90.79
35085;SHT85;21267;51.032;6.998;2024-01-16T00:08:22;1.56;90.86
35085;SHT85;21267;51.032;6.998;2024-01-16T00:10:49;1.51;90.82
35085;SHT85;21267;51.032;6.998;2024-01-16T00:13:16;1.47;90.93
35085;SHT85;21267;51.032;6.998;2024-01-16T00:15:43;1.51;90.94
35085;SHT85;21267;51.032;6.998;2024-01-16T00:18:10;1.54;90.89
35085;SHT85;21267;51.032;6.998;2024-01-16T00:20:37;1.49;91.03
35085;SHT85;21267;51.032;6.998;2024-01-16T00:23:04;1.52;91.05
35085;SHT85;21267;51.032;6.998;2024-01-16T00:25:31;1.51;91.14
35085;SHT85;21267;51.032;6.998;2024-01-16T00:27:57;1.49;91.09
35085;SHT85;21267;51.032;6.998;2024-01-16T00:30:24;1.48;91.20
35085;SHT85;21267;51.032;6.998;2024-01-16T00:32:51;1.51;91.07
35085;SHT85;21267;51.032;6.998;2024-01-16T00:35:18;1.49;90.96
35085;SHT85;21267;51.032;6.998;2024-01-16T00:37:47;1.52;91.15
35085;SHT85;21267;51.032;6.998;2024-01-16T00:40:14;1.55;90.73
35085;SHT85;21267;51.032;6.998;2024-01-16T00:42:41;1.51;90.76
35085;SHT85;21267;51.032;6.998;2024-01-16T00:45:08;1.48;90.89
35085;SHT85;21267;51.032;6.998;2024-01-16T00:47:35;1.49;90.85
35085;SHT85;21267;51.032;6.998;2024-01-16T00:50:03;1.45;90.95
35085;SHT85;21267;51.032;6.998;2024-01-16T00:52:32;1.45;91.00
35085;SHT85;21267;51.032;6.998;2024-01-16T00:54:58;1.41;91.10
35085;SHT85;21267;51.032;6.998;2024-01-16T01:01:39;1.45;91.20
35085;SHT85;21267;51.032;6.998;2024-01-16T01:04:19;1.44;91.22
35085;SHT85;21267;51.032;6.998;2024-01-16T01:07:00;1.39;91.31
35085;SHT85;21267;51.032;6.998;2024-01-16T01:09:40;1.39;91.33
35085;SHT85;21267;51.032;6.998;2024-01-16T01:12:21;1.32;91.22
35085;SHT85;21267;51.032;6.998;2024-01-16T01:15:01;1.35;91.38
35085;SHT85;21267;51.032;6.998;2024-01-16T01:17:41;1.37;91.25
35085;SHT85;21267;51.032;6.998;2024-01-16T01:20:22;1.39;91.08
35085;SHT85;21267;51.032;6.998;2024-01-16T01:22:49;1.37;91.39
35085;SHT85;21267;51.032;6.998;2024-01-16T01:25:16;1.37;91.27
35085;SHT85;21267;51.032;6.998;2024-01-16T01:27:44;1.42;91.13
35085;SHT85;21267;51.032;6.998;2024-01-16T01:30:11;1.37;91.09
35085;SHT85;21267;51.032;6.998;2024-01-16T01:32:39;1.39;90.81
35085;SHT85;21267;51.032;6.998;2024-01-16T01:35:07;1.41;90.82
35085;SHT85;21267;51.032;6.998;2024-01-16T01:37:34;1.42;90.95
35085;SHT85;21267;51.032;6.998;2024-01-16T01:40:00;1.39;90.99
35085;SHT85;21267;51.032;6.998;2024-01-16T01:42:27;1.45;90.95
35085;SHT85;21267;51.032;6.998;2024-01-16T01:44:54;1.41;90.55
35085;SHT85;21267;51.032;6.998;2024-01-16T01:47:21;1.44;90.75
35085;SHT85;21267;51.032;6.998;2024-01-16T01:49:48;1.42;90.69
35085;SHT85;21267;51.032;6.998;2024-01-16T01:52:15;1.45;90.82
35085;SHT85;21267;51.032;6.998;2024-01-16T01:54:44;1.39;90.80
35085;SHT85;21267;51.032;6.998;2024-01-16T01:57:11;1.31;91.09
35085;SHT85;21267;51.032;6.998;2024-01-16T01:59:38;1.42;91.09
35085;SHT85;21267;51.032;6.998;2024-01-16T02:02:05;1.37;91.29
35085;SHT85;21267;51.032;6.998;2024-01-16T02:04:32;1.27;91.23
35085;SHT85;21267;51.032;6.998;2024-01-16T02:07:00;1.37;90.90
35085;SHT85;21267;51.032;6.998;2024-01-16T02:09:28;1.32;91.08
35085;SHT85;21267;51.032;6.998;2024-01-16T02:11:55;1.35;91.13
35085;SHT85;21267;51.032;6.998;2024-01-16T02:14:22;1.35;90.98
35085;SHT85;21267;51.032;6.998;2024-01-16T02:16:49;1.37;91.19
35085;SHT85;21267;51.032;6.998;2024-01-16T02:19:17;1.38;91.12
35085;SHT85;21267;51.032;6.998;2024-01-16T02:21:48;1.34;91.33
35085;SHT85;21267;51.032;6.998;2024-01-16T02:24:18;1.44;91.47
35085;SHT85;21267;51.032;6.998;2024-01-16T02:26:45;1.37;91.50
35085;SHT85;21267;51.032;6.998;2024-01-16T02:29:12;1.20;91.89
35085;SHT85;21267;51.032;6.998;2024-01-16T02:31:40;1.28;91.99
35085;SHT85;21267;51.032;6.998;2024-01-16T02:34:08;1.24;92.01
35085;SHT85;21267;51.032;6.998;2024-01-16T02:36:35;1.21;92.18
35085;SHT85;21267;51.032;6.998;2024-01-16T02:39:02;1.18;92.23
35085;SHT85;21267;51.032;6.998;2024-01-16T02:41:31;1.18;92.42
35085;SHT85;21267;51.032;6.998;2024-01-16T02:43:57;1.13;92.28
35085;SHT85;21267;51.032;6.998;2024-01-16T02:46:24;1.05;92.28
35085;SHT85;21267;51.032;6.998;2024-01-16T02:48:51;1.17;92.01
35085;SHT85;21267;51.032;6.998;2024-01-16T02:51:18;1.13;91.67
35085;SHT85;21267;51.032;6.998;2024-01-16T02:53:44;1.14;91.37
35085;SHT85;21267;51.032;6.998;2024-01-16T02:56:11;1.16;91.07
35085;SHT85;21267;51.032;6.998;2024-01-16T02:58:38;1.16;90.84
35085;SHT85;21267;51.032;6.998;2024-01-16T03:01:05;1.17;90.85
35085;SHT85;21267;51.032;6.998;2024-01-16T03:03:32;1.14;90.83
35085;SHT85;21267;51.032;6.998;2024-01-16T03:05:59;1.14;90.64
35085;SHT85;21267;51.032;6.998;2024-01-16T03:08:26;1.16;90.70
35085;SHT85;21267;51.032;6.998;2024-01-16T03:10:53;1.14;90.83
35085;SHT85;21267;51.032;6.998;2024-01-16T03:13:19;1.13;90.93
35085;SHT85;21267;51.032;6.998;2024-01-16T03:15:46;1.07;91.14
35085;SHT85;21267;51.032;6.998;2024-01-16T03:18:13;1.13;91.25
35085;SHT85;21267;51.032;6.998;2024-01-16T03:20:40;1.13;91.39
35085;SHT85;21267;51.032;6.998;2024-01-16T03:23:07;1.07;91.53
35085;SHT85;21267;51.032;6.998;2024-01-16T03:25:34;1.08;91.33
35085;SHT85;21267;51.032;6.998;2024-01-16T03:28:06;1.07;91.43
35085;SHT85;21267;51.032;6.998;2024-01-16T03:30:37;1.05;91.41
35085;SHT85;21267;51.032;6.998;2024-01-16T03:33:04;1.01;91.67
35085;SHT85;21267;51.032;6.998;2024-01-16T03:35:32;1.00;91.51
35085;SHT85;21267;51.032;6.998;2024-01-16T03:38:01;1.04;91.72
35085;SHT85;21267;51.032;6.998;2024-01-16T03:40:28;1.04;91.46
35085;SHT85;21267;51.032;6.998;2024-01-16T03:43:01;1.10;91.26
35085;SHT85;21267;51.032;6.998;2024-01-16T03:45:28;1.05;91.30
35085;SHT85;21267;51.032;6.998;2024-01-16T03:47:56;1.07;91.30
35085;SHT85;21267;51.032;6.998;2024-01-16T03:50:23;1.10;91.29
35085;SHT85;21267;51.032;6.998;2024-01-16T03:52:50;1.04;91.33
35085;SHT85;21267;51.032;6.998;2024-01-16T03:55:16;1.03;91.40
35085;SHT85;21267;51.032;6.998;2024-01-16T03:57:43;1.13;91.33
35085;SHT85;21267;51.032;6.998;2024-01-16T04:00:13;1.11;91.25
35085;SHT85;21267;51.032;6.998;2024-01-16T04:02:40;1.10;91.20
35085;SHT85;21267;51.032;6.998;2024-01-16T04:05:07;1.18;91.51
35085;SHT85;21267;51.032;6.998;2024-01-16T04:07:34;1.16;91.26
35085;SHT85;21267;51.032;6.998;2024-01-16T04:10:01;1.07;91.37
35085;SHT85;21267;51.032;6.998;2024-01-16T04:12:29;1.13;91.33
35085;SHT85;21267;51.032;6.998;2024-01-16T04:14:56;1.18;91.13
35085;SHT85;21267;51.032;6.998;2024-01-16T04:17:22;1.17;91.39
35085;SHT85;21267;51.032;6.998;2024-01-16T04:19:49;1.10;91.52
35085;SHT85;21267;51.032;6.998;2024-01-16T04:22:16;1.16;91.36
35085;SHT85;21267;51.032;6.998;2024-01-16T04:24:43;1.03;91.60
35085;SHT85;21267;51.032;6.998;2024-01-16T04:27:11;1.07;91.62
35085;SHT85;21267;51.032;6.998;2024-01-16T04:29:38;1.04;91.63
35085;SHT85;21267;51.032;6.998;2024-01-16T04:32:05;1.04;91.58
35085;SHT85;21267;51.032;6.998;2024-01-16T04:34:32;1.00;91.68
35085;SHT85;21267;51.032;6.998;2024-01-16T04:36:58;0.96;91.68
35085;SHT85;21267;51.032;6.998;2024-01-16T04:39:26;0.97;91.52
35085;SHT85;21267;51.032;6.998;2024-01-16T04:41:53;0.99;91.34
35085;SHT85;21267;51.032;6.998;2024-01-16T04:44:20;0.96;91.34
35085;SHT85;21267;51.032;6.998;2024-01-16T04:46:46;0.90;91.31
35085;SHT85;21267;51.032;6.998;2024-01-16T04:49:13;0.99;91.20
35085;SHT85;21267;51.032;6.998;2024-01-16T04:51:40;1.01;91.10
35085;SHT85;21267;51.032;6.998;2024-01-16T04:54:07;1.03;90.79
35085;SHT85;21267;51.032;6.998;2024-01-16T04:56:34;1.00;90.96
35085;SHT85;21267;51.032;6.998;2024-01-16T04:59:00;0.99;90.99
35085;SHT85;21267;51.032;6.998;2024-01-16T05:01:27;1.03;91.02
35085;SHT85;21267;51.032;6.998;2024-01-16T05:03:54;1.10;91.16
35085;SHT85;21267;51.032;6.998;2024-01-16T05:06:21;1.01;91.31
35085;SHT85;21267;51.032;6.998;2024-01-16T05:08:48;1.07;91.13
35085;SHT85;21267;51.032;6.998;2024-01-16T05:11:15;1.07;91.11
35085;SHT85;21267;51.032;6.998;2024-01-16T05:13:42;1.01;91.33
35085;SHT85;21267;51.032;6.998;2024-01-16T05:16:09;0.99;91.52
35085;SHT85;21267;51.032;6.998;2024-01-16T05:18:35;1.00;91.53
35085;SHT85;21267;51.032;6.998;2024-01-16T05:21:04;0.96;91.55
35085;SHT85;21267;51.032;6.998;2024-01-16T05:23:31;0.89;92.23
35085;SHT85;21267;51.032;6.998;2024-01-16T05:25:57;0.80;92.70
35085;SHT85;21267;51.032;6.998;2024-01-16T05:28:24;0.80;92.97
35085;SHT85;21267;51.032;6.998;2024-01-16T05:30:51;0.76;93.02
35085;SHT85;21267;51.032;6.998;2024-01-16T05:33:18;0.72;92.68
35085;SHT85;21267;51.032;6.998;2024-01-16T05:35:45;0.75;92.44
35085;SHT85;21267;51.032;6.998;2024-01-16T05:38:11;0.86;92.05
35085;SHT85;21267;51.032;6.998;2024-01-16T05:40:39;0.81;91.80
35085;SHT85;21267;51.032;6.998;2024-01-16T05:43:06;0.90;91.68
35085;SHT85;21267;51.032;6.998;2024-01-16T05:45:33;0.81;91.37
35085;SHT85;21267;51.032;6.998;2024-01-16T05:48:00;0.87;91.07
35085;SHT85;21267;51.032;6.998;2024-01-16T05:50:28;0.89;91.04
35085;SHT85;21267;51.032;6.998;2024-01-16T05:52:56;0.97;90.45
35085;SHT85;21267;51.032;6.998;2024-01-16T05:55:23;0.91;90.37
35085;SHT85;21267;51.032;6.998;2024-01-16T05:57:50;0.87;89.86
35085;SHT85;21267;51.032;6.998;2024-01-16T06:00:18;0.90;89.95
35085;SHT85;21267;51.032;6.998;2024-01-16T06:02:45;0.96;90.05
35085;SHT85;21267;51.032;6.998;2024-01-16T06:05:11;0.91;89.89
35085;SHT85;21267;51.032;6.998;2024-01-16T06:07:38;1.00;89.27
35085;SHT85;21267;51.032;6.998;2024-01-16T06:10:06;0.97;89.31
35085;SHT85;21267;51.032;6.998;2024-01-16T06:12:34;0.93;89.15
35085;SHT85;21267;51.032;6.998;2024-01-16T06:15:01;1.03;89.35
35085;SHT85;21267;51.032;6.998;2024-01-16T06:17:28;1.04;88.68
35085;SHT85;21267;51.032;6.998;2024-01-16T06:19:55;1.03;88.78
35085;SHT85;21267;51.032;6.998;2024-01-16T06:22:23;1.07;88.48
35085;SHT85;21267;51.032;6.998;2024-01-16T06:24:50;0.99;88.04
35085;SHT85;21267;51.032;6.998;2024-01-16T06:27:17;1.01;88.03
35085;SHT85;21267;51.032;6.998;2024-01-16T06:29:45;0.96;88.06
35085;SHT85;21267;51.032;6.998;2024-01-16T06:32:13;1.08;88.01
35085;SHT85;21267;51.032;6.998;2024-01-16T06:34:40;1.01;87.45
35085;SHT85;21267;51.032;6.998;2024-01-16T06:37:07;1.07;87.22
35085;SHT85;21267;51.032;6.998;2024-01-16T06:39:35;1.08;87.43
35085;SHT85;21267;51.032;6.998;2024-01-16T06:42:02;1.01;87.09
35085;SHT85;21267;51.032;6.998;2024-01-16T06:44:36;1.03;87.02
35085;SHT85;21267;51.032;6.998;2024-01-16T06:47:05;1.05;86.98
35085;SHT85;21267;51.032;6.998;2024-01-16T06:49:33;1.14;87.01
35085;SHT85;21267;51.032;6.998;2024-01-16T06:52:00;1.14;86.90
35085;SHT85;21267;51.032;6.998;2024-01-16T06:54:29;1.16;86.59
35085;SHT85;21267;51.032;6.998;2024-01-16T06:56:59;1.11;86.53
35085;SHT85;21267;51.032;6.998;2024-01-16T06:59:27;1.18;86.42
35085;SHT85;21267;51.032;6.998;2024-01-16T07:01:56;1.13;86.70
35085;SHT85;21267;51.032;6.998;2024-01-16T07:04:26;1.10;86.63
35085;SHT85;21267;51.032;6.998;2024-01-16T07:06:53;1.14;86.53
35085;SHT85;21267;51.032;6.998;2024-01-16T07:09:21;1.16;86.48
35085;SHT85;21267;51.032;6.998;2024-01-16T07:11:48;1.20;86.60
35085;SHT85;21267;51.032;6.998;2024-01-16T07:14:18;1.18;86.68
35085;SHT85;21267;51.032;6.998;2024-01-16T07:16:45;1.26;86.33
35085;SHT85;21267;51.032;6.998;2024-01-16T07:19:14;1.27;86.38
35085;SHT85;21267;51.032;6.998;2024-01-16T07:21:41;1.18;85.96
35085;SHT85;21267;51.032;6.998;2024-01-16T07:24:07;1.17;85.75
35085;SHT85;21267;51.032;6.998;2024-01-16T07:26:34;1.26;85.82
35085;SHT85;21267;51.032;6.998;2024-01-16T07:33:39;1.11;85.59
35085;SHT85;21267;51.032;6.998;2024-01-16T07:36:08;1.07;85.93
35085;SHT85;21267;51.032;6.998;2024-01-16T07:38:36;1.23;85.63
35085;SHT85;21267;51.032;6.998;2024-01-16T07:41:05;1.17;85.08
35085;SHT85;21267;51.032;6.998;2024-01-16T07:43:35;1.14;85.05
35085;SHT85;21267;51.032;6.998;2024-01-16T07:46:03;1.13;85.18
35085;SHT85;21267;51.032;6.998;2024-01-16T07:48:33;1.14;84.66
35085;SHT85;21267;51.032;6.998;2024-01-16T07:51:01;1.18;84.73
35085;SHT85;21267;51.032;6.998;2024-01-16T07:53:28;1.21;84.37
35085;SHT85;21267;51.032;6.998;2024-01-16T07:55:56;1.18;83.97
35085;SHT85;21267;51.032;6.998;2024-01-16T07:58:23;1.18;84.07
35085;SHT85;21267;51.032;6.998;2024-01-16T08:00:50;1.23;84.08
35085;SHT85;21267;51.032;6.998;2024-01-16T08:03:18;1.20;83.82
35085;SHT85;21267;51.032;6.998;2024-01-16T08:05:45;1.17;83.81
35085;SHT85;21267;51.032;6.998;2024-01-16T08:08:11;1.16;84.21
35085;SHT85;21267;51.032;6.998;2024-01-16T08:10:41;1.27;83.98
35085;SHT85;21267;51.032;6.998;2024-01-16T08:13:08;1.23;83.58
35085;SHT85;21267;51.032;6.998;2024-01-16T08:15:36;1.14;83.63
35085;SHT85;21267;51.032;6.998;2024-01-16T08:18:03;1.26;83.04
35085;SHT85;21267;51.032;6.998;2024-01-16T08:20:32;1.23;83.37
35085;SHT85;21267;51.032;6.998;2024-01-16T08:22:59;1.17;83.34
35085;SHT85;21267;51.032;6.998;2024-01-16T08:25:25;1.26;82.81
35085;SHT85;21267;51.032;6.998;2024-01-16T08:27:52;1.17;83.08
35085;SHT85;21267;51.032;6.998;2024-01-16T08:30:19;1.17;83.21
35085;SHT85;21267;51.032;6.998;2024-01-16T08:32:46;1.26;83.19
35085;SHT85;21267;51.032;6.998;2024-01-16T08:35:13;1.34;82.78
35085;SHT85;21267;51.032;6.998;2024-01-16T08:37:40;1.30;82.79
35085;SHT85;21267;51.032;6.998;2024-01-16T08:40:07;1.24;82.64
35085;SHT85;21267;51.032;6.998;2024-01-16T08:42:33;1.13;82.54
35085;SHT85;21267;51.032;6.998;2024-01-16T08:45:00;1.24;82.85
35085;SHT85;21267;51.032;6.998;2024-01-16T08:47:27;1.21;82.55
35085;SHT85;21267;51.032;6.998;2024-01-16T08:49:54;1.18;82.56
35085;SHT85;21267;51.032;6.998;2024-01-16T08:52:21;1.20;82.65
35085;SHT85;21267;51.032;6.998;2024-01-16T08:54:48;1.27;82.12
35085;SHT85;21267;51.032;6.998;2024-01-16T08:57:15;1.38;81.75
35085;SHT85;21267;51.032;6.998;2024-01-16T08:59:43;1.39;81.91
35085;SHT85;21267;51.032;6.998;2024-01-16T09:02:10;1.45;81.12
35085;SHT85;21267;51.032;6.998;2024-01-16T09:04:37;1.47;80.71
35085;SHT85;21267;51.032;6.998;2024-01-16T09:07:04;1.63;80.98
35085;SHT85;21267;51.032;6.998;2024-01-16T09:09:32;1.82;80.85
35085;SHT85;21267;51.032;6.998;2024-01-16T09:11:59;2.06;79.81
35085;SHT85;21267;51.032;6.998;2024-01-16T09:14:26;2.38;79.03
35085;SHT85;21267;51.032;6.998;2024-01-16T09:16:53;2.71;78.11
35085;SHT85;21267;51.032;6.998;2024-01-16T09:19:20;2.71;77.32
35085;SHT85;21267;51.032;6.998;2024-01-16T09:21:48;2.30;78.05
35085;SHT85;21267;51.032;6.998;2024-01-16T09:24:15;2.18;78.63
35085;SHT85;21267;51.032;6.998;2024-01-16T09:26:42;1.87;78.60
35085;SHT85;21267;51.032;6.998;2024-01-16T09:29:09;1.90;79.10
35085;SHT85;21267;51.032;6.998;2024-01-16T09:31:36;1.79;78.53
35085;SHT85;21267;51.032;6.998;2024-01-16T09:34:04;1.75;78.54
35085;SHT85;21267;51.032;6.998;2024-01-16T09:36:35;1.76;79.06
35085;SHT85;21267;51.032;6.998;2024-01-16T09:39:07;1.68;78.97
35085;SHT85;21267;51.032;6.998;2024-01-16T09:41:45;1.65;78.98
35085;SHT85;21267;51.032;6.998;2024-01-16T09:44:12;1.54;78.66
35085;SHT85;21267;51.032;6.998;2024-01-16T09:46:39;1.38;78.93
35085;SHT85;21267;51.032;6.998;2024-01-16T09:49:11;1.59;78.98
35085;SHT85;21267;51.032;6.998;2024-01-16T09:51:38;1.72;78.90
35085;SHT85;21267;51.032;6.998;2024-01-16T09:54:05;1.52;78.51
35085;SHT85;21267;51.032;6.998;2024-01-16T09:56:42;1.68;78.91
35085;SHT85;21267;51.032;6.998;2024-01-16T09:59:12;1.60;78.66
35085;SHT85;21267;51.032;6.998;2024-01-16T10:01:41;1.58;78.77
35085;SHT85;21267;51.032;6.998;2024-01-16T10:04:09;1.66;78.35
35085;SHT85;21267;51.032;6.998;2024-01-16T10:06:37;1.52;78.16
35085;SHT85;21267;51.032;6.998;2024-01-16T10:09:04;1.55;78.00
35085;SHT85;21267;51.032;6.998;2024-01-16T10:11:33;1.55;78.22
35085;SHT85;21267;51.032;6.998;2024-01-16T10:14:00;1.56;77.58
35085;SHT85;21267;51.032;6.998;2024-01-16T10:17:03;1.54;78.04
35085;SHT85;21267;51.032;6.998;2024-01-16T10:19:50;1.59;78.16
35085;SHT85;21267;51.032;6.998;2024-01-16T10:22:22;1.45;77.80
35085;SHT85;21267;51.032;6.998;2024-01-16T10:27:30;1.56;77.37
35085;SHT85;21267;51.032;6.998;2024-01-16T10:29:58;1.58;77.11
35085;SHT85;21267;51.032;6.998;2024-01-16T10:32:37;1.52;76.82
35085;SHT85;21267;51.032;6.998;2024-01-16T10:35:10;1.59;77.09
35085;SHT85;21267;51.032;6.998;2024-01-16T10:37:50;1.72;77.17
35085;SHT85;21267;51.032;6.998;2024-01-16T10:40:20;1.79;77.17
35085;SHT85;21267;51.032;6.998;2024-01-16T10:43:04;1.83;76.54
35085;SHT85;21267;51.032;6.998;2024-01-16T10:45:33;1.96;76.62
35085;SHT85;21267;51.032;6.998;2024-01-16T10:48:04;2.00;76.30
35085;SHT85;21267;51.032;6.998;2024-01-16T10:50:34;2.18;75.46
35085;SHT85;21267;51.032;6.998;2024-01-16T10:53:06;2.57;75.02
35085;SHT85;21267;51.032;6.998;2024-01-16T10:55:51;3.33;72.95
35085;SHT85;21267;51.032;6.998;2024-01-16T10:58:22;3.23;72.73
35085;SHT85;21267;51.032;6.998;2024-01-16T11:00:52;4.19;71.46
35085;SHT85;21267;51.032;6.998;2024-01-16T11:03:47;3.99;70.44
35085;SHT85;21267;51.032;6.998;2024-01-16T11:06:17;3.56;71.27
35085;SHT85;21267;51.032;6.998;2024-01-16T11:08:47;3.48;72.13
35085;SHT85;21267;51.032;6.998;2024-01-16T11:11:14;3.24;72.06
35085;SHT85;21267;51.032;6.998;2024-01-16T11:13:41;3.30;71.59
35085;SHT85;21267;51.032;6.998;2024-01-16T11:16:11;2.74;72.27
35085;SHT85;21267;51.032;6.998;2024-01-16T11:18:39;2.77;73.37
35085;SHT85;21267;51.032;6.998;2024-01-16T11:21:16;2.48;72.66
35085;SHT85;21267;51.032;6.998;2024-01-16T11:23:45;2.54;73.35
35085;SHT85;21267;51.032;6.998;2024-01-16T11:26:30;2.49;73.22
35085;SHT85;21267;51.032;6.998;2024-01-16T11:31:55;2.38;73.76
35085;SHT85;21267;51.032;6.998;2024-01-16T11:37:13;2.09;74.07
35085;SHT85;21267;51.032;6.998;2024-01-16T11:39:40;2.16;74.48
35085;SHT85;21267;51.032;6.998;2024-01-16T11:42:08;2.10;74.12
35085;SHT85;21267;51.032;6.998;2024-01-16T11:44:49;2.00;74.76
35085;SHT85;21267;51.032;6.998;2024-01-16T11:47:22;2.30;74.20
35085;SHT85;21267;51.032;6.998;2024-01-16T11:49:52;2.42;73.90
35085;SHT85;21267;51.032;6.998;2024-01-16T11:52:44;2.72;73.51
35085;SHT85;21267;51.032;6.998;2024-01-16T12:00:27;3.75;71.40
35085;SHT85;21267;51.032;6.998;2024-01-16T12:02:56;4.12;69.54
35085;SHT85;21267;51.032;6.998;2024-01-16T12:05:23;3.66;70.04
35085;SHT85;21267;51.032;6.998;2024-01-16T12:07:52;3.13;70.96
35085;SHT85;21267;51.032;6.998;2024-01-16T12:10:21;2.75;71.92
35085;SHT85;21267;51.032;6.998;2024-01-16T12:12:49;3.05;71.52
35085;SHT85;21267;51.032;6.998;2024-01-16T12:15:21;3.33;71.03
35085;SHT85;21267;51.032;6.998;2024-01-16T12:18:01;2.84;72.20
35085;SHT85;21267;51.032;6.998;2024-01-16T12:20:30;3.31;71.49
35085;SHT85;21267;51.032;6.998;2024-01-16T12:25:25;3.51;70.46
35085;SHT85;21267;51.032;6.998;2024-01-16T12:28:12;3.10;71.10
35085;SHT85;21267;51.032;6.998;2024-01-16T12:30:57;3.23;70.34
35085;SHT85;21267;51.032;6.998;2024-01-16T12:33:24;3.28;69.78
35085;SHT85;21267;51.032;6.998;2024-01-16T12:36:00;3.20;70.94
35085;SHT85;21267;51.032;6.998;2024-01-16T12:38:28;2.77;72.48
35085;SHT85;21267;51.032;6.998;2024-01-16T12:40:55;2.33;72.47
35085;SHT85;21267;51.032;6.998;2024-01-16T12:43:22;2.57;72.20
35085;SHT85;21267;51.032;6.998;2024-01-16T12:45:56;2.71;72.52
35085;SHT85;21267;51.032;6.998;2024-01-16T12:48:25;2.82;72.31
35085;SHT85;21267;51.032;6.998;2024-01-16T12:51:00;3.54;70.08
35085;SHT85;21267;51.032;6.998;2024-01-16T12:53:30;3.77;68.85
35085;SHT85;21267;51.032;6.998;2024-01-16T12:56:03;3.78;69.81
35085;SHT85;21267;51.032;6.998;2024-01-16T12:58:35;4.03;68.94
35085;SHT85;21267;51.032;6.998;2024-01-16T13:01:24;3.38;70.29
35085;SHT85;21267;51.032;6.998;2024-01-16T13:04:06;3.70;70.10
35085;SHT85;21267;51.032;6.998;2024-01-16T13:06:34;3.82;69.64
35085;SHT85;21267;51.032;6.998;2024-01-16T13:09:10;4.10;68.80
35085;SHT85;21267;51.032;6.998;2024-01-16T13:11:48;4.46;67.67
35085;SHT85;21267;51.032;6.998;2024-01-16T13:14:20;4.58;66.21
35085;SHT85;21267;51.032;6.998;2024-01-16T13:16:52;3.99;67.02
35085;SHT85;21267;51.032;6.998;2024-01-16T13:19:22;3.48;69.15
35085;SHT85;21267;51.032;6.998;2024-01-16T13:21:49;3.91;68.18
35085;SHT85;21267;51.032;6.998;2024-01-16T13:24:16;4.28;66.80
35085;SHT85;21267;51.032;6.998;2024-01-16T13:26:50;4.05;67.89
35085;SHT85;21267;51.032;6.998;2024-01-16T13:29:18;4.02;67.56
35085;SHT85;21267;51.032;6.998;2024-01-16T13:31:46;3.50;67.93
35085;SHT85;21267;51.032;6.998;2024-01-16T13:34:12;2.79;69.82
35085;SHT85;21267;51.032;6.998;2024-01-16T13:36:41;2.91;69.80
35085;SHT85;21267;51.032;6.998;2024-01-16T13:39:29;2.93;70.31
35085;SHT85;21267;51.032;6.998;2024-01-16T13:41:58;3.37;69.59
35085;SHT85;21267;51.032;6.998;2024-01-16T13:44:25;3.99;68.38
35085;SHT85;21267;51.032;6.998;2024-01-16T13:46:52;4.73;66.26
35085;SHT85;21267;51.032;6.998;2024-01-16T13:49:35;4.94;64.79
35085;SHT85;21267;51.032;6.998;2024-01-16T13:52:02;4.97;64.49
35085;SHT85;21267;51.032;6.998;2024-01-16T13:54:30;4.80;65.20
35085;SHT85;21267;51.032;6.998;2024-01-16T13:56:57;4.73;65.85
35085;SHT85;21267;51.032;6.998;2024-01-16T13:59:35;4.87;66.22
35085;SHT85;21267;51.032;6.998;2024-01-16T14:02:03;5.26;65.10
35085;SHT85;21267;51.032;6.998;2024-01-16T14:04:32;5.89;63.35
35085;SHT85;21267;51.032;6.998;2024-01-16T14:06:59;5.77;64.19
35085;SHT85;21267;51.032;6.998;2024-01-16T14:09:40;5.63;63.68
35085;SHT85;21267;51.032;6.998;2024-01-16T14:12:12;5.34;64.21
35085;SHT85;21267;51.032;6.998;2024-01-16T14:14:40;5.76;64.17
35085;SHT85;21267;51.032;6.998;2024-01-16T14:17:09;6.10;63.04
35085;SHT85;21267;51.032;6.998;2024-01-16T14:19:37;5.42;63.78
35085;SHT85;21267;51.032;6.998;2024-01-16T14:22:05;5.25;64.03
35085;SHT85;21267;51.032;6.998;2024-01-16T14:24:32;4.64;65.24
35085;SHT85;21267;51.032;6.998;2024-01-16T14:26:58;4.87;65.35
35085;SHT85;21267;51.032;6.998;2024-01-16T14:29:26;5.50;64.27
35085;SHT85;21267;51.032;6.998;2024-01-16T14:31:53;5.73;63.35
35085;SHT85;21267;51.032;6.998;2024-01-16T14:34:23;4.95;64.29
35085;SHT85;21267;51.032;6.998;2024-01-16T14:36:51;4.80;64.45
35085;SHT85;21267;51.032;6.998;2024-01-16T14:39:19;4.30;66.53
35085;SHT85;21267;51.032;6.998;2024-01-16T14:41:53;4.71;66.98
35085;SHT85;21267;51.032;6.998;2024-01-16T14:44:20;4.20;67.16
35085;SHT85;21267;51.032;6.998;2024-01-16T14:46:47;4.13;66.97
35085;SHT85;21267;51.032;6.998;2024-01-16T14:49:18;4.42;66.13
35085;SHT85;21267;51.032;6.998;2024-01-16T14:51:45;3.91;66.59
35085;SHT85;21267;51.032;6.998;2024-01-16T14:54:11;3.92;67.28
35085;SHT85;21267;51.032;6.998;2024-01-16T14:56:39;3.63;67.29
35085;SHT85;21267;51.032;6.998;2024-01-16T14:59:05;3.75;67.40
35085;SHT85;21267;51.032;6.998;2024-01-16T15:01:32;3.68;66.86
35085;SHT85;21267;51.032;6.998;2024-01-16T15:03:59;3.96;65.99
35085;SHT85;21267;51.032;6.998;2024-01-16T15:06:26;3.85;66.21
35085;SHT85;21267;51.032;6.998;2024-01-16T15:08:54;4.15;65.53
35085;SHT85;21267;51.032;6.998;2024-01-16T15:11:21;4.16;64.72
35085;SHT85;21267;51.032;6.998;2024-01-16T15:13:48;4.12;64.25
35085;SHT85;21267;51.032;6.998;2024-01-16T15:16:16;3.84;65.34
35085;SHT85;21267;51.032;6.998;2024-01-16T15:18:45;3.46;66.50
35085;SHT85;21267;51.032;6.998;2024-01-16T15:21:12;3.58;66.27
35085;SHT85;21267;51.032;6.998;2024-01-16T15:23:39;3.00;65.23
35085;SHT85;21267;51.032;6.998;2024-01-16T15:26:07;2.48;65.47
35085;SHT85;21267;51.032;6.998;2024-01-16T15:28:33;2.41;66.57
35085;SHT85;21267;51.032;6.998;2024-01-16T15:31:02;2.37;66.90
35085;SHT85;21267;51.032;6.998;2024-01-16T15:33:35;2.41;66.96
35085;SHT85;21267;51.032;6.998;2024-01-16T15:36:03;2.27;68.56
35085;SHT85;21267;51.032;6.998;2024-01-16T15:38:30;2.09;69.72
35085;SHT85;21267;51.032;6.998;2024-01-16T15:40:57;1.80;70.12
35085;SHT85;21267;51.032;6.998;2024-01-16T15:43:24;1.63;70.89
35085;SHT85;21267;51.032;6.998;2024-01-16T15:45:51;1.56;70.26
35085;SHT85;21267;51.032;6.998;2024-01-16T15:48:18;1.32;71.37
35085;SHT85;21267;51.032;6.998;2024-01-16T15:50:45;1.38;71.74
35085;SHT85;21267;51.032;6.998;2024-01-16T15:53:12;1.35;71.26
35085;SHT85;21267;51.032;6.998;2024-01-16T15:55:43;1.20;71.70
35085;SHT85;21267;51.032;6.998;2024-01-16T15:58:10;1.20;72.28
35085;SHT85;21267;51.032;6.998;2024-01-16T16:00:37;1.35;71.91
35085;SHT85;21267;51.032;6.998;2024-01-16T16:03:04;1.37;71.78
35085;SHT85;21267;51.032;6.998;2024-01-16T16:05:34;1.30;72.03
35085;SHT85;21267;51.032;6.998;2024-01-16T16:08:03;1.11;72.10
35085;SHT85;21267;51.032;6.998;2024-01-16T16:10:34;1.00;72.70
35085;SHT85;21267;51.032;6.998;2024-01-16T16:13:02;0.87;73.46
35085;SHT85;21267;51.032;6.998;2024-01-16T16:15:30;0.79;73.80
35085;SHT85;21267;51.032;6.998;2024-01-16T16:18:05;0.75;73.86
35085;SHT85;21267;51.032;6.998;2024-01-16T16:20:34;0.91;73.62